Time;durP1;ratioP1;P1;durP2;ratioP2;P2;SDS_P1;SDS_P2;PMS_P1;PMS_P2;Temp;Humidity;BMP_temperature;BMP_pressure;BME280_temperature;BME280_humidity;BME280_pressure;Samples;Min_cycle;Max_cycle;Signal;HPM_P1;HPM_P2
2021/03/28 00:01:00;;;;;;;;;;;;;;;2.18;72.24;96505.22;1791333;80;20134;-61
2021/03/28 00:03:34;;;;;;;;;;;;;;;2.16;72.18;96499.96;1791170;80;20175;-61
2021/03/28 00:06:18;;;;;;;;;;;;;;;2.15;72.48;96495.61;1791049;80;20134;-61
2021/03/28 00:08:49;;;;;;;;;;;;;;;2.18;72.55;96492.63;1790240;80;20151;-61
2021/03/28 00:11:21;;;;;;;;;;;;;;;2.18;72.20;96493.51;1788783;80;20157;-61
2021/03/28 00:13:54;;;;;;;;;;;;;;;2.15;72.07;96489.09;1791275;80;20178;-61
2021/03/28 00:16:25;;;;;;;;;;;;;;;2.09;71.79;96495.45;1790960;80;20166;-61
2021/03/28 00:19:08;;;;;;;;;;;;;;;2.00;72.45;96486.48;1790232;80;20218;-61
2021/03/28 00:21:48;;;;;;;;;;;;;;;2.00;72.45;96489.97;1760442;80;20138;-61
2021/03/28 00:24:28;;;;;;;;;;;;;;;1.86;72.52;96487.37;1786383;80;20448;-61
2021/03/28 00:27:17;;;;;;;;;;;;;;;1.87;72.30;96482.22;1786130;80;20245;-61
2021/03/28 00:29:56;;;;;;;;;;;;;;;1.80;71.86;96478.09;1786223;80;20253;-61
2021/03/28 00:32:28;;;;;;;;;;;;;;;1.70;72.14;96474.34;1785781;80;20139;-61
2021/03/28 00:34:59;;;;;;;;;;;;;;;1.76;71.74;96474.51;1747198;80;20157;-61
2021/03/28 00:37:27;;;;;;;;;;;;;;;1.79;71.68;96473.71;1784171;80;20154;-61
2021/03/28 00:40:00;;;;;;;;;;;;;;;1.76;71.59;96469.30;1785462;80;20147;-61
2021/03/28 00:42:39;;;;;;;;;;;;;;;1.69;71.44;96472.59;1785773;80;20163;-61
2021/03/28 00:45:35;;;;;;;;;;;;;;;1.63;71.49;96468.06;1785584;80;20150;-61
2021/03/28 00:48:22;;;;;;;;;;;;;;;1.53;71.48;96467.75;1785472;80;20135;-61
2021/03/28 00:50:57;;;;;;;;;;;;;;;1.43;72.09;96462.67;1785517;80;20154;-61
2021/03/28 00:53:34;;;;;;;;;;;;;;;1.32;73.84;96466.68;1783295;80;20155;-61
2021/03/28 00:56:05;;;;;;;;;;;;;;;1.27;72.95;96464.81;1785596;80;20154;-61
2021/03/28 00:58:46;;;;;;;;;;;;;;;1.36;72.44;96465.92;1785595;80;20436;-61
2021/03/28 01:01:28;;;;;;;;;;;;;;;1.37;73.43;96467.28;1781454;80;20139;-61
2021/03/28 01:04:21;;;;;;;;;;;;;;;1.36;72.92;96468.12;1785619;80;20170;-61
2021/03/28 01:06:52;;;;;;;;;;;;;;;1.34;73.17;96476.72;1785484;80;20146;-61
2021/03/28 01:09:28;;;;;;;;;;;;;;;1.37;73.33;96476.38;1785320;80;20185;-60
2021/03/28 01:12:05;;;;;;;;;;;;;;;1.40;72.87;96478.19;1785119;80;20162;-61
2021/03/28 01:14:42;;;;;;;;;;;;;;;1.43;73.02;96474.38;1785501;80;20170;-61
2021/03/28 01:17:38;;;;;;;;;;;;;;;1.41;72.76;96470.84;1785658;80;20202;-61
2021/03/28 01:20:37;;;;;;;;;;;;;;;1.37;73.54;96474.20;1780591;80;20416;-61
2021/03/28 01:23:34;;;;;;;;;;;;;;;1.31;73.04;96473.61;1776637;81;20147;-61
2021/03/28 01:26:11;;;;;;;;;;;;;;;1.25;73.92;96466.47;1777114;81;20150;-61
2021/03/28 01:28:55;;;;;;;;;;;;;;;1.23;73.97;96463.36;1777257;80;20151;-61
2021/03/28 01:31:35;;;;;;;;;;;;;;;1.26;73.32;96463.05;1777316;81;20150;-60
2021/03/28 01:34:09;;;;;;;;;;;;;;;1.28;73.10;96469.16;1777237;81;20156;-61
2021/03/28 01:36:46;;;;;;;;;;;;;;;1.27;73.50;96463.51;1776190;80;20159;-61
2021/03/28 01:39:16;;;;;;;;;;;;;;;1.30;74.13;96459.70;1776556;80;20436;-61
2021/03/28 01:41:48;;;;;;;;;;;;;;;1.21;74.17;96465.93;1777282;81;20155;-60
2021/03/28 01:44:21;;;;;;;;;;;;;;;1.18;74.55;96463.63;1776035;80;20139;-61
2021/03/28 01:47:01;;;;;;;;;;;;;;;1.20;75.04;96465.88;1777292;81;20186;-61
2021/03/28 01:50:01;;;;;;;;;;;;;;;1.23;74.39;96463.36;1776175;80;20155;-61
2021/03/28 01:52:43;;;;;;;;;;;;;;;1.28;74.39;96462.66;1776891;81;20440;-61
2021/03/28 01:55:31;;;;;;;;;;;;;;;1.41;73.78;96458.75;1777089;81;20435;-61
2021/03/28 01:58:03;;;;;;;;;;;;;;;1.50;73.67;96451.20;1777218;81;20185;-61
2021/03/28 02:01:09;;;;;;;;;;;;;;;1.44;74.28;96456.23;1776968;81;20158;-61
2021/03/28 02:03:43;;;;;;;;;;;;;;;1.37;74.57;96456.00;1776461;80;20432;-61
2021/03/28 02:06:23;;;;;;;;;;;;;;;1.28;74.29;96454.86;1776779;80;20139;-61
2021/03/28 02:09:27;;;;;;;;;;;;;;;1.20;74.68;96457.64;1777302;81;20166;-60
2021/03/28 02:12:07;;;;;;;;;;;;;;;1.17;74.73;96456.69;1776947;81;20147;-61
2021/03/28 02:15:11;;;;;;;;;;;;;;;1.12;75.19;96454.36;1776996;81;20131;-61
2021/03/28 02:17:51;;;;;;;;;;;;;;;1.00;75.91;96454.42;1776902;81;20158;-61
2021/03/28 02:20:29;;;;;;;;;;;;;;;1.02;74.73;96455.77;1776863;80;20198;-61
2021/03/28 02:23:12;;;;;;;;;;;;;;;1.05;74.71;96454.14;1777217;81;20150;-61
2021/03/28 02:25:57;;;;;;;;;;;;;;;0.92;75.95;96461.52;1777061;81;20456;-61
2021/03/28 02:28:34;;;;;;;;;;;;;;;0.92;75.72;96455.02;1777041;81;20143;-61
2021/03/28 02:31:22;;;;;;;;;;;;;;;0.93;75.52;96453.75;1777017;81;20162;-61
2021/03/28 02:33:56;;;;;;;;;;;;;;;0.97;75.14;96453.45;1776838;81;20163;-61
2021/03/28 02:36:38;;;;;;;;;;;;;;;0.99;75.31;96448.77;1777194;81;20143;-61
2021/03/28 02:39:12;;;;;;;;;;;;;;;1.00;75.21;96454.42;1776778;81;20163;-61
2021/03/28 02:42:04;;;;;;;;;;;;;;;1.00;74.74;96445.74;1777349;81;20197;-61
2021/03/28 02:44:56;;;;;;;;;;;;;;;0.99;74.46;96447.47;1777017;81;20423;-60
2021/03/28 02:47:42;;;;;;;;;;;;;;;0.97;74.85;96444.35;1777098;81;20147;-61
2021/03/28 02:50:36;;;;;;;;;;;;;;;0.92;75.44;96444.63;1777017;81;20464;-61
2021/03/28 02:53:24;;;;;;;;;;;;;;;0.88;74.90;96440.15;1777032;81;20143;-62
2021/03/28 02:56:04;;;;;;;;;;;;;;;0.91;74.90;96442.45;1777256;81;20163;-61
2021/03/28 02:58:44;;;;;;;;;;;;;;;0.94;75.14;96429.55;1776877;81;20151;-61
2021/03/28 03:01:32;;;;;;;;;;;;;;;1.00;75.04;96432.75;1776957;81;20150;-61
2021/03/28 03:04:21;;;;;;;;;;;;;;;1.08;75.07;96425.68;1777056;81;20170;-61
2021/03/28 03:06:54;;;;;;;;;;;;;;;1.15;74.75;96420.23;1777350;81;20163;-61
2021/03/28 03:09:50;;;;;;;;;;;;;;;1.14;76.07;96424.10;1776694;80;20154;-60
2021/03/28 03:12:55;;;;;;;;;;;;;;;1.22;75.82;96422.19;1776947;81;20143;-60
2021/03/28 03:15:42;;;;;;;;;;;;;;;1.35;75.28;96431.24;1777151;81;20159;-61
2021/03/28 03:18:22;;;;;;;;;;;;;;;1.56;75.41;96424.91;1777183;81;20175;-61
2021/03/28 03:20:55;;;;;;;;;;;;;;;1.58;76.01;96424.55;1780744;80;20166;-61
2021/03/28 03:23:45;;;;;;;;;;;;;;;1.58;75.07;96425.42;1784966;80;20155;-61
2021/03/28 03:26:37;;;;;;;;;;;;;;;1.60;74.49;96423.75;1785748;80;20130;-61
2021/03/28 03:29:23;;;;;;;;;;;;;;;1.60;74.15;96424.18;1784842;80;20146;-61
2021/03/28 03:32:29;;;;;;;;;;;;;;;1.47;74.29;96430.73;1785481;80;20158;-61
2021/03/28 03:35:04;;;;;;;;;;;;;;;1.39;75.45;96437.02;1785466;80;20432;-61
2021/03/28 03:37:38;;;;;;;;;;;;;;;1.36;75.62;96444.73;1785462;80;20416;-61
2021/03/28 03:40:15;;;;;;;;;;;;;;;1.40;76.33;96437.89;1785453;80;20439;-61
2021/03/28 03:42:52;;;;;;;;;;;;;;;1.49;75.80;96431.67;1785572;80;20142;-61
2021/03/28 03:45:46;;;;;;;;;;;;;;;1.51;76.32;96433.48;1785694;80;20174;-61
2021/03/28 03:48:35;;;;;;;;;;;;;;;1.57;76.35;96430.17;1785618;80;20432;-61
2021/03/28 03:51:42;;;;;;;;;;;;;;;1.63;75.79;96430.77;1781696;80;20139;-61
2021/03/28 03:54:33;;;;;;;;;;;;;;;1.72;76.80;96435.82;1785424;80;20475;-61
2021/03/28 03:57:19;;;;;;;;;;;;;;;1.69;76.10;96426.63;1785450;80;20455;-61
2021/03/28 04:00:09;;;;;;;;;;;;;;;1.60;75.87;96430.26;1785354;80;20151;-61
2021/03/28 04:02:45;;;;;;;;;;;;;;;1.55;76.21;96427.06;1785509;80;20170;-61
2021/03/28 04:05:45;;;;;;;;;;;;;;;1.49;75.75;96434.27;1785387;80;20146;-61
2021/03/28 04:08:37;;;;;;;;;;;;;;;1.48;75.96;96429.89;1785574;80;20154;-60
2021/03/28 04:11:35;;;;;;;;;;;;;;;1.53;76.12;96443.91;1785764;80;20159;-61
2021/03/28 04:14:21;;;;;;;;;;;;;;;1.58;77.06;96439.73;1785792;80;20162;-61
2021/03/28 04:17:05;;;;;;;;;;;;;;;1.68;77.50;96446.96;1785736;80;20146;-61
2021/03/28 04:19:39;;;;;;;;;;;;;;;1.76;76.75;96451.09;1785386;80;20138;-62
2021/03/28 04:22:18;;;;;;;;;;;;;;;1.83;76.70;96472.98;1777030;81;20139;-61
2021/03/28 04:25:01;;;;;;;;;;;;;;;1.84;76.90;96469.52;1776171;81;20147;-61
2021/03/28 04:27:40;;;;;;;;;;;;;;;1.95;77.03;96478.55;1774467;80;20143;-61
2021/03/28 04:30:20;;;;;;;;;;;;;;;2.03;76.40;96464.02;1759402;80;20151;-61
2021/03/28 04:33:25;;;;;;;;;;;;;;;2.08;76.79;96469.36;1774720;81;20139;-61
2021/03/28 04:36:26;;;;;;;;;;;;;;;2.30;76.42;96467.81;1777280;81;20151;-61
2021/03/28 04:39:26;;;;;;;;;;;;;;;2.62;76.02;96470.41;1757452;81;20424;-61
2021/03/28 04:42:19;;;;;;;;;;;;;;;3.37;75.18;96463.53;1777093;81;20162;-61
2021/03/28 04:44:59;;;;;;;;;;;;;;;3.97;73.77;96482.70;1757475;81;20163;-61
2021/03/28 04:47:49;;;;;;;;;;;;;;;4.48;72.56;96480.68;1777180;81;20170;-61
2021/03/28 04:50:31;;;;;;;;;;;;;;;4.74;72.99;96477.70;1777272;81;20155;-59
2021/03/28 04:53:25;;;;;;;;;;;;;;;5.04;72.73;96476.05;1776836;80;20158;-59
2021/03/28 04:56:14;;;;;;;;;;;;;;;5.21;71.95;96457.56;1777342;81;20146;-59
2021/03/28 04:59:02;;;;;;;;;;;;;;;5.37;71.46;96471.79;1777126;81;20135;-59
2021/03/28 05:01:53;;;;;;;;;;;;;;;5.42;70.26;96481.90;1776387;80;20178;-59
2021/03/28 05:04:36;;;;;;;;;;;;;;;5.59;69.46;96486.49;1777032;81;20166;-59
2021/03/28 05:07:29;;;;;;;;;;;;;;;5.62;69.72;96474.78;1777012;81;20167;-59
2021/03/28 05:10:12;;;;;;;;;;;;;;;5.69;70.16;96500.17;1776915;81;20135;-59
2021/03/28 05:13:20;;;;;;;;;;;;;;;5.76;70.49;96512.94;1777227;81;20210;-59
2021/03/28 05:16:11;;;;;;;;;;;;;;;5.83;70.40;96531.81;1777614;81;20245;-58
2021/03/28 05:19:02;;;;;;;;;;;;;;;5.86;70.25;96552.38;1776977;81;20135;-59
2021/03/28 05:22:05;;;;;;;;;;;;;;;5.89;69.48;96565.95;1764643;80;20186;-59
2021/03/28 05:24:48;;;;;;;;;;;;;;;5.93;69.37;96574.31;1776910;81;20159;-59
2021/03/28 05:27:37;;;;;;;;;;;;;;;5.90;69.04;96596.97;1777032;81;20168;-59
2021/03/28 05:30:24;;;;;;;;;;;;;;;5.87;68.98;96606.94;1776835;80;20155;-59
2021/03/28 05:33:15;;;;;;;;;;;;;;;5.89;69.02;96618.33;1777074;81;20139;-59
2021/03/28 05:36:07;;;;;;;;;;;;;;;5.83;68.92;96637.45;1777145;81;20154;-59
2021/03/28 05:38:50;;;;;;;;;;;;;;;5.84;68.99;96650.11;1776530;80;20167;-59
2021/03/28 05:41:41;;;;;;;;;;;;;;;5.78;68.92;96658.76;1777050;81;20175;-59
2021/03/28 05:44:32;;;;;;;;;;;;;;;5.75;68.43;96670.50;1777099;81;20460;-59
2021/03/28 05:47:36;;;;;;;;;;;;;;;5.68;68.61;96682.14;1777110;81;20159;-59
2021/03/28 05:50:31;;;;;;;;;;;;;;;5.56;69.14;96704.61;1776963;81;20428;-59
2021/03/28 05:53:25;;;;;;;;;;;;;;;5.43;68.96;96710.05;1777290;81;20147;-61
2021/03/28 05:56:32;;;;;;;;;;;;;;;5.27;69.79;96720.20;1776960;81;20424;-61
2021/03/28 05:59:14;;;;;;;;;;;;;;;5.19;70.34;96729.18;1776250;80;20424;-61
2021/03/28 06:02:05;;;;;;;;;;;;;;;5.07;71.34;96737.68;1776629;80;20142;-61
2021/03/28 06:04:45;;;;;;;;;;;;;;;5.00;72.60;96742.31;1777002;81;20424;-61
2021/03/28 06:07:37;;;;;;;;;;;;;;;4.92;72.69;96745.20;1776187;80;20448;-61
2021/03/28 06:10:31;;;;;;;;;;;;;;;4.92;72.41;96750.00;1776371;80;20143;-61
2021/03/28 06:13:11;;;;;;;;;;;;;;;4.89;73.24;96754.26;1777258;81;20131;-61
2021/03/28 06:15:57;;;;;;;;;;;;;;;4.83;75.22;96765.48;1777251;81;20169;-61
2021/03/28 06:18:37;;;;;;;;;;;;;;;4.81;74.65;96767.16;1776851;81;20151;-61
2021/03/28 06:21:28;;;;;;;;;;;;;;;4.73;75.72;96764.38;1776803;80;20170;-61
2021/03/28 06:24:29;;;;;;;;;;;;;;;4.70;75.51;96760.83;1776764;81;20143;-61
2021/03/28 06:27:06;;;;;;;;;;;;;;;4.67;75.68;96749.00;1777121;81;20143;-61
2021/03/28 06:29:58;;;;;;;;;;;;;;;4.70;76.06;96747.75;1777023;81;20158;-61
2021/03/28 06:32:49;;;;;;;;;;;;;;;4.74;75.79;96752.22;1776110;80;20139;-61
2021/03/28 06:35:35;;;;;;;;;;;;;;;4.77;76.15;96766.66;1777044;81;20428;-61
2021/03/28 06:38:38;;;;;;;;;;;;;;;4.80;76.54;96776.30;1776869;81;20440;-61
2021/03/28 06:41:30;;;;;;;;;;;;;;;4.91;76.91;96781.34;1777023;81;20139;-58
2021/03/28 06:44:10;;;;;;;;;;;;;;;4.94;76.69;96784.05;1776926;81;20424;-61
2021/03/28 06:47:07;;;;;;;;;;;;;;;4.97;77.00;96786.72;1776564;80;20166;-61
2021/03/28 06:50:12;;;;;;;;;;;;;;;5.09;76.58;96788.70;1777366;81;20238;-61
2021/03/28 06:53:05;;;;;;;;;;;;;;;5.13;76.14;96788.81;1777070;81;20185;-61
2021/03/28 06:55:35;;;;;;;;;;;;;;;5.19;75.83;96794.59;1776857;81;20162;-61
2021/03/28 06:58:40;;;;;;;;;;;;;;;5.24;75.19;96796.00;1777260;81;20151;-61
2021/03/28 07:01:39;;;;;;;;;;;;;;;5.18;75.16;96804.18;1776925;80;20472;-61
2021/03/28 07:04:22;;;;;;;;;;;;;;;5.18;75.41;96808.11;1777103;81;20163;-61
2021/03/28 07:07:06;;;;;;;;;;;;;;;5.21;75.83;96811.21;1776896;81;20189;-61
2021/03/28 07:09:37;;;;;;;;;;;;;;;5.37;75.75;96804.16;1776957;81;20163;-61
2021/03/28 07:12:41;;;;;;;;;;;;;;;5.48;75.69;96803.50;1776657;80;20148;-61
2021/03/28 07:15:38;;;;;;;;;;;;;;;5.58;76.26;96798.47;1777027;81;20159;-61
2021/03/28 07:18:18;;;;;;;;;;;;;;;5.76;75.54;96801.00;1777238;81;20150;-61
2021/03/28 07:21:09;;;;;;;;;;;;;;;5.84;74.87;96800.72;1776785;80;20158;-61
2021/03/28 07:24:03;;;;;;;;;;;;;;;5.97;74.87;96807.10;1774642;80;20459;-61
2021/03/28 07:26:51;;;;;;;;;;;;;;;6.20;74.98;96803.59;1776925;81;20183;-61
2021/03/28 07:29:32;;;;;;;;;;;;;;;6.51;74.62;96797.15;1777056;81;20162;-58
2021/03/28 07:32:20;;;;;;;;;;;;;;;6.94;73.53;96806.56;1776326;80;20162;-59
2021/03/28 07:35:11;;;;;;;;;;;;;;;7.08;71.69;96794.97;1777159;81;20151;-59
2021/03/28 07:37:42;;;;;;;;;;;;;;;7.16;70.76;96796.39;1776924;81;20146;-59
2021/03/28 07:40:16;;;;;;;;;;;;;;;7.38;70.54;96793.61;1776811;81;20269;-59
2021/03/28 07:42:56;;;;;;;;;;;;;;;7.62;69.16;96789.11;1777113;81;20131;-59
2021/03/28 07:45:53;;;;;;;;;;;;;;;7.80;68.73;96802.45;1776446;80;20143;-58
2021/03/28 07:48:45;;;;;;;;;;;;;;;7.74;67.81;96802.39;1728639;80;20529;-60
2021/03/28 07:51:18;;;;;;;;;;;;;;;7.55;67.58;96800.39;1777515;81;20238;-59
2021/03/28 07:54:16;;;;;;;;;;;;;;;7.51;68.15;96804.73;1774581;80;20159;-59
2021/03/28 07:56:56;;;;;;;;;;;;;;;7.75;68.84;96804.14;1777181;81;20246;-58
2021/03/28 07:59:32;;;;;;;;;;;;;;;7.98;67.86;96808.78;1776774;81;20175;-59
2021/03/28 08:02:38;;;;;;;;;;;;;;;7.99;66.53;96801.36;1773663;80;20135;-59
2021/03/28 08:05:36;;;;;;;;;;;;;;;8.10;67.28;96811.98;1777387;81;20174;-59
2021/03/28 08:08:24;;;;;;;;;;;;;;;8.26;64.37;96809.06;1777137;81;20161;-59
2021/03/28 08:11:10;;;;;;;;;;;;;;;8.38;63.65;96806.56;1776353;81;20453;-59
2021/03/28 08:13:48;;;;;;;;;;;;;;;8.48;61.92;96814.14;1777119;81;20143;-59
2021/03/28 08:16:21;;;;;;;;;;;;;;;8.71;61.31;96809.95;1776704;80;20448;-59
2021/03/28 08:19:26;;;;;;;;;;;;;;;8.69;59.62;96805.09;1776651;80;20420;-58
2021/03/28 08:22:29;;;;;;;;;;;;;;;8.85;59.76;96812.70;1777059;80;20155;-58
2021/03/28 08:25:17;;;;;;;;;;;;;;;8.77;58.86;96820.95;1776884;81;20187;-59
2021/03/28 08:28:20;;;;;;;;;;;;;;;8.68;55.60;96819.58;1777355;81;20233;-59
2021/03/28 08:31:18;;;;;;;;;;;;;;;8.64;56.23;96831.41;1777186;81;20171;-59
2021/03/28 08:34:13;;;;;;;;;;;;;;;8.89;57.36;96839.47;1777334;81;20150;-59
2021/03/28 08:37:13;;;;;;;;;;;;;;;8.94;58.97;96829.86;1777216;81;20167;-59
2021/03/28 08:40:06;;;;;;;;;;;;;;;9.00;56.43;96831.24;1776938;81;20159;-59
2021/03/28 08:43:11;;;;;;;;;;;;;;;8.60;54.32;96834.86;1777259;81;20130;-58
2021/03/28 08:46:11;;;;;;;;;;;;;;;8.38;55.01;96849.95;1776931;81;20155;-58
2021/03/28 08:49:03;;;;;;;;;;;;;;;8.38;55.07;96835.48;1777266;81;20151;-59
2021/03/28 08:51:46;;;;;;;;;;;;;;;8.28;55.94;96850.28;1776878;81;20154;-59
2021/03/28 08:54:36;;;;;;;;;;;;;;;8.39;55.65;96850.39;1820390;79;20142;-59
2021/03/28 08:57:18;;;;;;;;;;;;;;;8.49;56.55;96848.77;1791097;80;20162;-59
2021/03/28 09:00:04;;;;;;;;;;;;;;;8.54;55.31;96840.08;1788038;80;20150;-59
2021/03/28 09:02:59;;;;;;;;;;;;;;;8.56;55.03;96854.10;1791301;80;20461;-59
2021/03/28 09:05:30;;;;;;;;;;;;;;;8.78;55.03;96843.78;1791169;80;20431;-59
2021/03/28 09:08:25;;;;;;;;;;;;;;;9.05;54.42;96837.86;1791161;80;20143;-59
2021/03/28 09:11:13;;;;;;;;;;;;;;;9.16;53.91;96840.56;1791004;80;20142;-59
2021/03/28 09:13:50;;;;;;;;;;;;;;;9.11;54.44;96849.74;1791069;80;20444;-59
2021/03/28 09:16:39;;;;;;;;;;;;;;;9.14;54.40;96846.25;1791345;80;20150;-59
2021/03/28 09:19:30;;;;;;;;;;;;;;;8.91;53.19;96844.77;1791190;80;20137;-59
2021/03/28 09:22:22;;;;;;;;;;;;;;;8.69;52.81;96848.52;1791255;80;20443;-59
2021/03/28 09:25:05;;;;;;;;;;;;;;;8.64;53.80;96864.28;1790239;80;20146;-60
2021/03/28 09:27:36;;;;;;;;;;;;;;;8.50;51.91;96873.78;1791318;80;20170;-59
2021/03/28 09:30:26;;;;;;;;;;;;;;;8.48;51.14;96863.67;1791422;80;20162;-59
2021/03/28 09:33:20;;;;;;;;;;;;;;;8.67;53.33;96862.12;1791230;80;20455;-59
2021/03/28 09:36:24;;;;;;;;;;;;;;;8.80;51.26;96885.48;1791203;80;20150;-59
2021/03/28 09:39:09;;;;;;;;;;;;;;;8.88;51.49;96852.20;1791329;80;20150;-59
2021/03/28 09:42:07;;;;;;;;;;;;;;;9.11;50.25;96862.91;1791033;80;20435;-59
2021/03/28 09:44:55;;;;;;;;;;;;;;;9.08;49.78;96864.20;1790729;80;20439;-59
2021/03/28 09:47:38;;;;;;;;;;;;;;;9.00;49.29;96872.48;1787144;80;20222;-59
2021/03/28 09:50:15;;;;;;;;;;;;;;;9.01;50.79;96876.87;1791411;80;20154;-59
2021/03/28 09:52:48;;;;;;;;;;;;;;;8.88;51.38;96874.58;1788888;80;20154;-59
2021/03/28 09:55:25;;;;;;;;;;;;;;;8.89;51.43;96871.06;1785789;80;20154;-59
2021/03/28 09:58:07;;;;;;;;;;;;;;;9.05;51.72;96872.09;1786097;80;20253;-59
2021/03/28 10:00:54;;;;;;;;;;;;;;;9.15;50.97;96868.66;1786216;80;20578;-59
2021/03/28 10:03:37;;;;;;;;;;;;;;;9.40;48.71;96861.80;1786192;80;20451;-59
2021/03/28 10:06:08;;;;;;;;;;;;;;;9.80;47.67;96870.34;1785677;80;20178;-59
2021/03/28 10:08:39;;;;;;;;;;;;;;;9.99;49.68;96866.92;1785166;80;20139;-59
2021/03/28 10:11:18;;;;;;;;;;;;;;;10.04;48.16;96873.55;1785504;80;20159;-59
2021/03/28 10:14:18;;;;;;;;;;;;;;;9.97;47.56;96870.86;1785816;80;20135;-60
2021/03/28 10:17:12;;;;;;;;;;;;;;;9.95;48.87;96876.59;1785676;80;20163;-59
2021/03/28 10:19:42;;;;;;;;;;;;;;;9.75;47.69;96872.95;1785840;80;20166;-59
2021/03/28 10:22:15;;;;;;;;;;;;;;;9.70;49.31;96883.91;1785581;80;20162;-59
2021/03/28 10:25:08;;;;;;;;;;;;;;;9.57;49.50;96875.05;1785244;80;20401;-58
2021/03/28 10:28:07;;;;;;;;;;;;;;;9.57;50.70;96888.67;1785609;80;20142;-59
2021/03/28 10:30:55;;;;;;;;;;;;;;;9.36;48.02;96892.94;1782546;80;20149;-59
2021/03/28 10:33:49;;;;;;;;;;;;;;;9.24;48.94;96897.67;1785616;80;20146;-59
2021/03/28 10:36:39;;;;;;;;;;;;;;;9.13;48.07;96893.21;1785762;80;20157;-60
2021/03/28 10:39:33;;;;;;;;;;;;;;;8.62;49.87;96892.33;1785519;80;20131;-59
2021/03/28 10:42:12;;;;;;;;;;;;;;;8.56;51.04;96904.52;1778418;80;20170;-59
2021/03/28 10:44:43;;;;;;;;;;;;;;;8.31;52.46;96898.09;1785541;80;20135;-59
2021/03/28 10:47:20;;;;;;;;;;;;;;;8.15;51.61;96902.30;1784535;80;20146;-59
2021/03/28 10:50:09;;;;;;;;;;;;;;;8.15;54.18;96904.48;1785661;80;20428;-59
2021/03/28 10:53:03;;;;;;;;;;;;;;;8.13;52.25;96910.59;1784891;80;20138;-60
2021/03/28 10:55:47;;;;;;;;;;;;;;;8.13;52.51;96916.72;1785575;80;20149;-60
2021/03/28 10:58:35;;;;;;;;;;;;;;;8.09;52.51;96921.52;1784274;80;20424;-59
2021/03/28 11:01:12;;;;;;;;;;;;;;;8.20;52.94;96919.88;1785484;80;20143;-59
2021/03/28 11:04:12;;;;;;;;;;;;;;;8.53;52.33;96921.16;1781623;80;20154;-59
2021/03/28 11:06:46;;;;;;;;;;;;;;;9.27;53.61;96912.61;1785641;80;20155;-59
2021/03/28 11:09:46;;;;;;;;;;;;;;;9.77;53.72;96917.78;1785914;80;20185;-59
2021/03/28 11:12:34;;;;;;;;;;;;;;;10.26;51.52;96909.68;1785140;80;20134;-60
2021/03/28 11:15:29;;;;;;;;;;;;;;;10.30;51.54;96910.59;1785704;80;20134;-59
2021/03/28 11:18:22;;;;;;;;;;;;;;;10.05;51.40;96916.17;1785817;80;20146;-59
2021/03/28 11:20:57;;;;;;;;;;;;;;;9.62;52.54;96911.98;1784870;80;20153;-59
2021/03/28 11:23:57;;;;;;;;;;;;;;;9.33;53.43;96915.31;1785608;80;20178;-59
2021/03/28 11:26:54;;;;;;;;;;;;;;;8.95;54.71;96925.53;1785506;80;20150;-59
2021/03/28 11:29:40;;;;;;;;;;;;;;;8.64;55.43;96924.80;1785776;80;20163;-60
2021/03/28 11:32:24;;;;;;;;;;;;;;;8.35;56.87;96923.13;1785556;80;20142;-60
2021/03/28 11:35:04;;;;;;;;;;;;;;;8.26;57.74;96926.08;1785618;80;20143;-59
2021/03/28 11:37:44;;;;;;;;;;;;;;;8.22;57.33;96926.48;1783572;80;20150;-59
2021/03/28 11:40:32;;;;;;;;;;;;;;;8.11;57.12;96925.02;1785780;80;20417;-60
2021/03/28 11:43:06;;;;;;;;;;;;;;;8.02;57.17;96919.23;1785579;80;20163;-59
2021/03/28 11:45:51;;;;;;;;;;;;;;;7.99;58.19;96927.52;1785501;80;20149;-60
2021/03/28 11:48:30;;;;;;;;;;;;;;;7.81;59.42;96937.33;1783218;80;20146;-59
2021/03/28 11:51:03;;;;;;;;;;;;;;;7.74;59.28;96941.63;1759486;80;20435;-59
2021/03/28 11:53:33;;;;;;;;;;;;;;;7.80;59.13;96931.63;1778982;80;20175;-60
2021/03/28 11:56:01;;;;;;;;;;;;;;;8.15;59.30;96926.83;1777091;81;20131;-59
2021/03/28 11:58:38;;;;;;;;;;;;;;;8.31;57.66;96924.38;1777155;81;20172;-59
2021/03/28 12:01:07;;;;;;;;;;;;;;;8.21;56.98;96921.66;1777182;81;20150;-59
2021/03/28 12:03:41;;;;;;;;;;;;;;;8.10;56.93;96924.58;1776911;81;20183;-59
2021/03/28 12:06:21;;;;;;;;;;;;;;;8.09;57.29;96924.55;1777154;80;20170;-60
2021/03/28 12:08:52;;;;;;;;;;;;;;;8.03;57.58;96920.98;1777254;81;20188;-59
2021/03/28 12:11:35;;;;;;;;;;;;;;;8.13;57.43;96920.66;1776969;81;20432;-59
2021/03/28 12:14:15;;;;;;;;;;;;;;;8.23;57.49;96919.91;1777187;81;20155;-60
2021/03/28 12:17:10;;;;;;;;;;;;;;;8.45;56.42;96918.89;1776787;81;20159;-59
2021/03/28 12:19:53;;;;;;;;;;;;;;;8.43;55.64;96921.48;1777393;81;20155;-59
2021/03/28 12:22:24;;;;;;;;;;;;;;;8.36;54.46;96916.98;1777071;81;20166;-59
2021/03/28 12:24:58;;;;;;;;;;;;;;;8.27;54.36;96918.22;1777170;81;20151;-60
2021/03/28 12:27:46;;;;;;;;;;;;;;;8.22;54.71;96919.91;1775395;80;20190;-60
2021/03/28 12:30:37;;;;;;;;;;;;;;;8.28;55.18;96922.60;1777060;81;20143;-59
2021/03/28 12:33:07;;;;;;;;;;;;;;;8.20;55.53;96928.20;1777183;81;20178;-59
2021/03/28 12:35:42;;;;;;;;;;;;;;;8.12;55.99;96921.98;1776761;81;20147;-60
2021/03/28 12:38:33;;;;;;;;;;;;;;;8.06;56.46;96913.56;1777079;81;20154;-59
2021/03/28 12:41:22;;;;;;;;;;;;;;;8.16;56.96;96921.13;1776973;81;20155;-59
2021/03/28 12:43:59;;;;;;;;;;;;;;;8.34;55.31;96920.06;1777069;81;20147;-59
2021/03/28 12:46:33;;;;;;;;;;;;;;;8.56;54.14;96917.68;1777123;81;20423;-59
2021/03/28 12:49:13;;;;;;;;;;;;;;;8.73;52.96;96913.47;1777160;81;20147;-59
2021/03/28 12:51:44;;;;;;;;;;;;;;;8.75;52.63;96909.11;1776930;81;20420;-60
2021/03/28 12:54:24;;;;;;;;;;;;;;;8.80;53.04;96917.94;1780852;80;20138;-60
2021/03/28 12:56:55;;;;;;;;;;;;;;;8.93;53.15;96912.78;1784252;80;20186;-59
2021/03/28 12:59:37;;;;;;;;;;;;;;;9.95;51.95;96903.38;1785441;80;20427;-59
2021/03/28 13:02:12;;;;;;;;;;;;;;;9.76;48.89;96907.69;1785505;80;20443;-59
2021/03/28 13:04:39;;;;;;;;;;;;;;;9.30;49.46;96904.76;1773810;80;20146;-59
2021/03/28 13:07:10;;;;;;;;;;;;;;;8.98;50.70;96904.50;1785574;80;20154;-60
2021/03/28 13:09:38;;;;;;;;;;;;;;;8.80;50.77;96906.09;1781281;80;20150;-60
2021/03/28 13:12:12;;;;;;;;;;;;;;;8.71;51.59;96909.06;1785496;80;20135;-59
2021/03/28 13:14:47;;;;;;;;;;;;;;;8.61;52.35;96910.28;1785437;80;20154;-59
2021/03/28 13:17:27;;;;;;;;;;;;;;;8.57;51.91;96899.73;1785527;80;20448;-59
2021/03/28 13:20:15;;;;;;;;;;;;;;;8.50;51.32;96891.33;1785474;80;20138;-59
2021/03/28 13:22:48;;;;;;;;;;;;;;;8.40;51.75;96888.59;1785575;80;20427;-59
2021/03/28 13:25:21;;;;;;;;;;;;;;;8.36;50.88;96888.50;1785644;80;20424;-59
2021/03/28 13:28:06;;;;;;;;;;;;;;;8.26;51.63;96890.14;1785229;80;20162;-60
2021/03/28 13:30:37;;;;;;;;;;;;;;;8.20;49.99;96894.91;1757375;80;20170;-59
2021/03/28 13:33:20;;;;;;;;;;;;;;;8.22;50.39;96891.87;1785147;80;20162;-60
2021/03/28 13:35:53;;;;;;;;;;;;;;;8.39;49.64;96903.93;1785387;80;20154;-60
2021/03/28 13:38:34;;;;;;;;;;;;;;;8.31;49.15;96904.22;1759985;80;20140;-59
2021/03/28 13:41:07;;;;;;;;;;;;;;;8.32;49.52;96903.38;1785664;80;20432;-59
2021/03/28 13:43:37;;;;;;;;;;;;;;;8.34;49.59;96901.65;1784646;80;20483;-59
2021/03/28 13:46:08;;;;;;;;;;;;;;;8.44;49.13;96899.60;1785491;80;20166;-59
2021/03/28 13:48:35;;;;;;;;;;;;;;;8.66;48.14;96894.54;1783478;80;20426;-60
2021/03/28 13:51:19;;;;;;;;;;;;;;;8.70;47.33;96900.73;1785535;80;20420;-59
2021/03/28 13:53:57;;;;;;;;;;;;;;;8.87;46.88;96896.08;1783800;80;20139;-59
2021/03/28 13:56:41;;;;;;;;;;;;;;;9.58;45.61;96890.02;1777246;81;20147;-59
2021/03/28 13:59:20;;;;;;;;;;;;;;;10.18;44.82;96881.08;1764161;81;20138;-59
2021/03/28 14:01:57;;;;;;;;;;;;;;;10.17;43.71;96885.45;1776877;81;20142;-59
2021/03/28 14:04:37;;;;;;;;;;;;;;;10.29;43.89;96885.97;1776691;80;20170;-59
2021/03/28 14:07:23;;;;;;;;;;;;;;;10.23;42.88;96883.30;1777073;81;20495;-60
2021/03/28 14:10:06;;;;;;;;;;;;;;;9.83;42.59;96892.80;1777176;81;20172;-59
2021/03/28 14:12:40;;;;;;;;;;;;;;;9.56;42.93;96897.47;1776997;81;20170;-59
2021/03/28 14:15:11;;;;;;;;;;;;;;;9.36;44.07;96902.16;1776964;81;20131;-59
2021/03/28 14:17:38;;;;;;;;;;;;;;;10.18;42.61;96899.10;1777114;81;20155;-59
2021/03/28 14:20:22;;;;;;;;;;;;;;;11.12;41.09;96894.48;1777324;81;20265;-59
2021/03/28 14:23:11;;;;;;;;;;;;;;;11.46;38.59;96890.03;1777084;81;20147;-59
2021/03/28 14:25:48;;;;;;;;;;;;;;;11.82;37.94;96888.23;1777366;81;20146;-59
2021/03/28 14:28:31;;;;;;;;;;;;;;;12.52;36.11;96881.77;1776056;80;20139;-59